createdAt,value
2019-05-18T00:01:45.171Z,52.20
2019-05-18T00:04:14.727Z,52.09
2019-05-18T00:06:44.249Z,52.05
2019-05-18T00:09:13.897Z,51.94
2019-05-18T00:11:43.455Z,51.85
2019-05-18T00:14:13.048Z,51.71
2019-05-18T00:16:43.958Z,51.57
2019-05-18T00:19:13.598Z,51.40
2019-05-18T00:21:43.570Z,51.35
2019-05-18T00:24:13.325Z,51.25
2019-05-18T00:26:43.024Z,51.19
2019-05-18T00:29:12.615Z,51.11
2019-05-18T00:31:42.191Z,51.04
2019-05-18T00:34:14.268Z,51.00
2019-05-18T00:36:44.336Z,51.08
2019-05-18T00:39:14.024Z,51.15
2019-05-18T00:41:46.213Z,51.16
2019-05-18T00:44:28.224Z,51.07
2019-05-18T00:46:58.561Z,50.96
2019-05-18T00:49:29.460Z,50.82
2019-05-18T00:52:02.986Z,50.70
2019-05-18T00:54:33.699Z,50.62
2019-05-18T00:57:08.357Z,50.56
2019-05-18T00:59:39.697Z,50.45
2019-05-18T01:02:10.584Z,50.40
2019-05-18T01:04:40.136Z,50.36
2019-05-18T01:07:09.686Z,50.31
2019-05-18T01:09:40.653Z,50.25
2019-05-18T01:12:13.909Z,50.21
2019-05-18T01:14:43.581Z,50.22
2019-05-18T01:17:14.716Z,50.21
2019-05-18T01:19:45.362Z,50.23
2019-05-18T01:22:15.025Z,50.23
2019-05-18T01:24:44.996Z,50.26
2019-05-18T01:27:16.658Z,50.26
2019-05-18T01:29:47.041Z,50.25
2019-05-18T01:32:16.635Z,50.21
2019-05-18T01:34:46.230Z,50.24
2019-05-18T01:37:15.884Z,50.29
2019-05-18T01:39:45.417Z,50.28
2019-05-18T01:42:16.935Z,50.24
2019-05-18T01:44:46.433Z,50.10
2019-05-18T01:47:18.070Z,50.11
2019-05-18T01:49:48.650Z,50.18
2019-05-18T01:52:18.144Z,50.34
2019-05-18T01:54:48.006Z,50.38
2019-05-18T01:57:17.527Z,50.36
2019-05-18T01:59:47.055Z,50.40
2019-05-18T02:02:18.213Z,50.45
2019-05-18T02:04:49.994Z,50.43
2019-05-18T02:07:20.449Z,50.46
2019-05-18T02:09:50.101Z,50.40
2019-05-18T02:12:19.698Z,50.42
2019-05-18T02:14:49.248Z,50.43
2019-05-18T02:17:18.826Z,50.50
2019-05-18T02:19:48.382Z,50.50
2019-05-18T02:22:18.707Z,50.47
2019-05-18T02:24:48.372Z,50.47
2019-05-18T02:27:18.278Z,50.49
2019-05-18T02:29:50.375Z,50.46
2019-05-18T02:32:20.220Z,50.52
2019-05-18T02:34:50.039Z,50.55
2019-05-18T02:37:19.613Z,50.63
2019-05-18T02:39:51.404Z,50.64
2019-05-18T02:42:24.915Z,50.72
2019-05-18T02:44:54.684Z,50.81
2019-05-18T02:47:25.108Z,50.86
2019-05-18T02:49:54.684Z,50.91
2019-05-18T02:52:24.374Z,50.96
2019-05-18T02:54:54.799Z,51.07
2019-05-18T02:57:24.567Z,51.13
2019-05-18T02:59:54.373Z,51.17
2019-05-18T03:02:25.450Z,51.26
2019-05-18T03:04:55.473Z,51.23
2019-05-18T03:07:33.385Z,51.25
2019-05-18T03:10:03.031Z,51.26
2019-05-18T03:12:32.985Z,51.20
2019-05-18T03:15:06.873Z,51.20
2019-05-18T03:17:36.769Z,51.25
2019-05-18T03:20:07.766Z,51.23
2019-05-18T03:22:37.568Z,51.21
2019-05-18T03:25:07.587Z,51.17
2019-05-18T03:27:38.325Z,51.23
2019-05-18T03:30:08.229Z,51.32
2019-05-18T03:32:39.030Z,51.32
2019-05-18T03:35:12.784Z,51.33
2019-05-18T03:37:43.135Z,51.30
2019-05-18T03:40:13.264Z,51.35
2019-05-18T03:42:42.983Z,51.34
2019-05-18T03:45:13.670Z,51.32
2019-05-18T03:47:47.456Z,51.30
2019-05-18T03:50:17.425Z,51.26
2019-05-18T03:52:47.149Z,51.22
2019-05-18T03:55:18.229Z,51.09
2019-05-18T03:57:50.545Z,51.05
2019-05-18T04:00:21.018Z,51.02
2019-05-18T04:02:50.711Z,51.01
2019-05-18T04:05:20.363Z,50.98
2019-05-18T04:07:50.105Z,51.02
2019-05-18T04:10:26.865Z,51.00
2019-05-18T04:12:56.593Z,50.98
2019-05-18T04:15:26.405Z,51.02
2019-05-18T04:17:56.241Z,51.04
2019-05-18T04:20:27.173Z,51.08
2019-05-18T04:22:56.870Z,51.08
2019-05-18T04:25:27.210Z,51.13
2019-05-18T04:27:56.984Z,51.08
2019-05-18T04:30:26.610Z,51.10
2019-05-18T04:32:57.224Z,51.22
2019-05-18T04:35:31.044Z,51.28
2019-05-18T04:38:00.700Z,51.37
2019-05-18T04:40:30.379Z,51.35
2019-05-18T04:43:02.901Z,51.31
2019-05-18T04:45:32.476Z,51.33
2019-05-18T04:48:02.060Z,51.37
2019-05-18T04:50:35.306Z,51.35
2019-05-18T04:53:05.527Z,51.52
2019-05-18T04:55:35.660Z,51.66
2019-05-18T04:58:09.180Z,51.78
2019-05-18T05:00:39.269Z,51.96
2019-05-18T05:03:09.727Z,52.03
2019-05-18T05:05:40.191Z,52.08
2019-05-18T05:08:12.593Z,52.10
2019-05-18T05:10:42.261Z,52.22
2019-05-18T05:13:11.882Z,52.25
2019-05-18T05:15:41.524Z,52.25
2019-05-18T05:18:14.001Z,52.20
2019-05-18T05:20:43.556Z,52.11
2019-05-18T05:23:13.263Z,52.03
2019-05-18T05:25:43.003Z,51.99
2019-05-18T05:28:13.043Z,51.90
2019-05-18T05:30:42.829Z,51.91
2019-05-18T05:33:14.850Z,51.89
2019-05-18T05:35:44.356Z,51.84
2019-05-18T05:38:13.904Z,51.82
2019-05-18T05:40:43.604Z,51.81
2019-05-18T05:43:13.152Z,51.81
2019-05-18T05:45:42.737Z,51.75
2019-05-18T05:48:12.602Z,51.68
2019-05-18T05:50:42.445Z,51.68
2019-05-18T05:53:15.865Z,51.58
2019-05-18T05:55:45.374Z,51.50
2019-05-18T05:58:15.503Z,51.43
2019-05-18T06:00:45.176Z,51.44
2019-05-18T06:03:14.989Z,51.42
2019-05-18T06:05:46.308Z,51.44
2019-05-18T06:08:15.901Z,51.36
2019-05-18T06:10:46.400Z,51.34
2019-05-18T06:13:16.940Z,51.33
2019-05-18T06:15:46.734Z,51.44
2019-05-18T06:18:16.534Z,51.44
2019-05-18T06:20:51.607Z,51.46
2019-05-18T06:23:17.270Z,51.50
2019-05-18T06:25:46.642Z,51.49
2019-05-18T06:28:16.177Z,51.55
2019-05-18T06:30:45.735Z,51.56
2019-05-18T06:33:15.321Z,51.53
2019-05-18T06:35:44.760Z,51.47
2019-05-18T06:38:14.871Z,51.48
2019-05-18T06:40:44.493Z,51.44
2019-05-18T06:43:16.064Z,51.34
2019-05-18T06:45:45.675Z,51.30
2019-05-18T06:48:15.127Z,51.30
2019-05-18T06:50:44.858Z,51.43
2019-05-18T06:53:14.444Z,51.53
2019-05-18T06:55:43.977Z,51.57
2019-05-18T06:58:15.471Z,51.62
2019-05-18T07:00:45.846Z,51.69
2019-05-18T07:03:18.281Z,51.79
2019-05-18T07:06:43.589Z,51.80
2019-05-18T07:09:14.462Z,51.71
2019-05-18T07:12:26.792Z,51.57
2019-05-18T07:20:21.056Z,51.60
2019-05-18T07:22:50.617Z,51.73
2019-05-18T07:25:20.064Z,51.64
2019-05-18T07:27:49.548Z,51.59
2019-05-18T07:30:31.216Z,51.53
2019-05-18T07:33:00.710Z,51.55
2019-05-18T07:35:30.247Z,51.47
2019-05-18T07:38:02.649Z,51.38
2019-05-18T07:40:32.194Z,51.31
2019-05-18T07:43:04.659Z,51.25
2019-05-18T07:45:35.542Z,51.11
2019-05-18T07:48:05.089Z,50.99
2019-05-18T07:50:34.622Z,50.87
2019-05-18T07:53:04.586Z,50.69
2019-05-18T07:55:34.169Z,50.43
2019-05-18T07:58:06.088Z,50.28
2019-05-18T08:00:35.576Z,50.05
2019-05-18T08:03:05.079Z,49.65
2019-05-18T08:05:34.687Z,49.37
2019-05-18T08:08:04.222Z,48.98
2019-05-18T08:10:38.444Z,48.70
2019-05-18T08:13:09.256Z,48.44
2019-05-18T08:15:39.267Z,48.27
2019-05-18T08:18:10.377Z,47.98
2019-05-18T08:20:40.511Z,47.53
2019-05-18T08:23:10.131Z,47.23
2019-05-18T08:25:42.702Z,46.93
2019-05-18T08:28:14.064Z,46.63
2019-05-18T08:30:44.027Z,46.19
2019-05-18T08:33:13.897Z,45.79
2019-05-18T08:35:44.208Z,45.96
2019-05-18T08:38:13.895Z,45.87
2019-05-18T08:40:43.727Z,45.25
2019-05-18T08:43:13.795Z,45.51
2019-05-18T08:45:44.493Z,45.50
2019-05-18T08:48:14.941Z,45.52
2019-05-18T08:50:46.900Z,45.54
2019-05-18T08:53:16.769Z,45.40
2019-05-18T08:55:51.225Z,45.34
2019-05-18T08:58:22.617Z,45.28
2019-05-18T09:00:53.304Z,45.24
2019-05-18T09:03:24.182Z,45.03
2019-05-18T09:05:53.993Z,44.76
2019-05-18T09:08:23.665Z,44.83
2019-05-18T09:10:53.751Z,44.71
2019-05-18T09:13:23.417Z,44.54
2019-05-18T09:15:54.955Z,43.98
2019-05-18T09:18:24.762Z,44.07
2019-05-18T09:21:03.773Z,43.95
2019-05-18T09:23:34.890Z,44.00
2019-05-18T09:26:04.868Z,43.45
2019-05-18T09:28:45.383Z,43.30
2019-05-18T09:31:18.996Z,42.41
2019-05-18T09:34:00.099Z,42.16
2019-05-18T09:36:29.871Z,42.45
2019-05-18T09:39:00.778Z,40.79
2019-05-18T09:41:31.793Z,40.82
2019-05-18T09:46:40.943Z,41.96
2019-05-18T09:49:13.964Z,42.71
2019-05-18T09:52:00.392Z,42.36
2019-05-18T09:54:31.065Z,41.83
2019-05-18T09:57:03.856Z,40.64
2019-05-18T09:59:45.548Z,40.63
2019-05-18T10:02:15.157Z,40.55
2019-05-18T10:04:45.340Z,40.32
2019-05-18T10:07:15.133Z,39.96
2019-05-18T10:09:46.341Z,40.03
2019-05-18T10:12:16.401Z,39.39
2019-05-18T10:14:46.304Z,38.12
2019-05-18T10:17:16.014Z,36.97
2019-05-18T10:19:45.603Z,36.16
2019-05-18T10:22:15.857Z,36.26
2019-05-18T10:24:45.607Z,35.95
2019-05-18T10:27:16.135Z,35.98
2019-05-18T10:29:46.742Z,35.93
2019-05-18T10:32:18.779Z,34.98
2019-05-18T10:52:43.182Z,37.86
2019-05-18T11:15:19.341Z,33.86
2019-05-18T11:39:11.036Z,36.76
2019-05-18T11:41:44.429Z,37.62
2019-05-18T11:44:19.956Z,37.50
2019-05-18T11:47:27.181Z,37.05
2019-05-18T11:50:02.575Z,37.72
2019-05-18T11:52:33.716Z,38.04
2019-05-18T11:55:03.317Z,38.95
2019-05-18T11:57:32.754Z,39.67
2019-05-18T12:00:09.173Z,39.89
2019-05-18T12:02:40.606Z,39.65
2019-05-18T12:05:12.916Z,39.65
2019-05-18T12:07:42.578Z,39.55
2019-05-18T12:10:12.950Z,39.70
2019-05-18T12:12:42.382Z,39.65
2019-05-18T12:15:13.440Z,39.58
2019-05-18T12:17:42.893Z,39.10
2019-05-18T12:20:13.795Z,38.67
2019-05-18T12:22:44.478Z,39.06
2019-05-18T12:25:14.927Z,40.10
2019-05-18T12:27:44.702Z,40.17
2019-05-18T12:30:17.771Z,41.24
2019-05-18T12:32:47.170Z,42.42
2019-05-18T12:35:17.007Z,41.97
2019-05-18T12:37:46.405Z,42.65
2019-05-18T12:40:18.819Z,42.10
2019-05-18T12:42:49.075Z,42.80
2019-05-18T12:45:20.180Z,41.59
2019-05-18T12:47:49.670Z,40.63
2019-05-18T12:50:21.317Z,40.04
2019-05-18T12:52:50.935Z,37.76
2019-05-18T12:55:21.035Z,36.44
2019-05-18T12:57:50.488Z,36.46
2019-05-18T13:00:21.704Z,36.50
2019-05-18T13:02:51.339Z,39.58
2019-05-18T13:05:20.893Z,40.34
2019-05-18T13:07:53.391Z,41.08
2019-05-18T13:10:26.535Z,42.16
2019-05-18T13:12:56.095Z,42.28
2019-05-18T13:15:25.788Z,41.82
2019-05-18T13:17:55.200Z,40.72
2019-05-18T13:20:24.889Z,40.02
2019-05-18T13:22:54.404Z,40.08
2019-05-18T13:25:23.940Z,39.02
2019-05-18T13:27:53.543Z,38.95
2019-05-18T13:30:23.155Z,38.51
2019-05-18T13:32:52.655Z,37.45
2019-05-18T13:35:22.532Z,38.69
2019-05-18T13:37:51.870Z,37.60
2019-05-18T13:40:23.248Z,37.67
2019-05-18T13:42:52.637Z,37.68
2019-05-18T13:45:22.250Z,37.75
2019-05-18T13:47:51.710Z,38.31
2019-05-18T13:50:21.303Z,38.73
2019-05-18T13:52:50.759Z,39.11
2019-05-18T13:55:20.491Z,40.26
2019-05-18T13:57:50.000Z,39.94
2019-05-18T14:00:20.471Z,38.63
2019-05-18T14:02:50.135Z,39.01
2019-05-18T14:05:19.643Z,39.54
2019-05-18T14:07:50.124Z,39.60
2019-05-18T14:10:20.544Z,39.22
2019-05-18T14:12:49.972Z,39.48
2019-05-18T14:15:22.686Z,39.62
2019-05-18T14:17:50.910Z,40.62
2019-05-18T14:20:36.234Z,40.98
2019-05-18T14:23:05.767Z,40.97
2019-05-18T14:25:36.163Z,39.92
2019-05-18T14:28:09.108Z,40.88
2019-05-18T14:30:38.750Z,41.97
2019-05-18T14:33:11.840Z,41.86
2019-05-18T14:35:41.306Z,41.53
2019-05-18T14:38:11.777Z,41.73
2019-05-18T14:40:41.271Z,41.54
2019-05-18T14:43:10.717Z,40.75
2019-05-18T14:45:40.444Z,40.77
2019-05-18T14:48:15.125Z,40.96
2019-05-18T14:50:44.760Z,40.72
2019-05-18T14:53:14.345Z,39.65
2019-05-18T14:55:43.896Z,38.63
2019-05-18T14:58:13.359Z,37.27
2019-05-18T15:00:43.231Z,35.56
2019-05-18T15:03:12.813Z,34.56
2019-05-18T15:05:42.305Z,33.81
2019-05-18T15:08:11.881Z,33.15
2019-05-18T15:10:41.563Z,31.14
2019-05-18T15:13:11.142Z,29.37
2019-05-18T15:15:40.703Z,28.36
2019-05-18T15:18:10.195Z,28.18
2019-05-18T15:20:39.685Z,28.97
2019-05-18T15:23:09.204Z,27.93
2019-05-18T15:25:50.080Z,28.32
2019-05-18T15:28:09.929Z,28.63
2019-05-18T15:30:39.422Z,29.61
2019-05-18T15:33:08.896Z,30.77
2019-05-18T15:35:40.177Z,31.14
2019-05-18T15:38:09.706Z,31.92
2019-05-18T15:40:39.134Z,32.13
2019-05-18T15:43:08.578Z,32.89
2019-05-18T15:45:37.962Z,33.08
2019-05-18T15:48:07.643Z,32.77
2019-05-18T15:50:37.056Z,32.70
2019-05-18T15:53:06.493Z,32.70
2019-05-18T15:55:36.197Z,33.17
2019-05-18T15:58:05.709Z,33.65
2019-05-18T16:00:35.200Z,33.93
2019-05-18T16:03:04.603Z,34.33
2019-05-18T16:05:34.191Z,34.48
2019-05-18T16:08:08.381Z,34.45
2019-05-18T16:10:38.052Z,35.11
2019-05-18T16:13:07.402Z,35.29
2019-05-18T16:15:36.953Z,35.48
2019-05-18T16:18:06.436Z,35.83
2019-05-18T16:20:35.852Z,36.03
2019-05-18T16:23:05.277Z,36.42
2019-05-18T16:25:34.736Z,36.67
2019-05-18T16:28:04.304Z,36.61
2019-05-18T16:30:33.792Z,36.86
2019-05-18T16:33:03.255Z,37.02
2019-05-18T16:35:32.634Z,37.19
2019-05-18T16:38:02.229Z,37.40
2019-05-18T16:40:31.634Z,37.48
2019-05-18T16:43:03.496Z,37.57
2019-05-18T16:45:33.980Z,37.67
2019-05-18T16:48:06.788Z,37.77
2019-05-18T16:50:36.182Z,37.79
2019-05-18T16:53:05.790Z,37.81
2019-05-18T16:55:35.327Z,38.04
2019-05-18T16:58:04.665Z,38.26
2019-05-18T17:00:34.029Z,38.43
2019-05-18T17:03:03.376Z,38.77
2019-05-18T17:05:32.734Z,38.93
2019-05-18T17:08:02.113Z,38.91
2019-05-18T17:10:31.577Z,39.08
2019-05-18T17:13:00.893Z,38.91
2019-05-18T17:15:30.358Z,39.01
2019-05-18T17:17:59.666Z,39.30
2019-05-18T17:20:29.069Z,39.08
2019-05-18T17:23:01.003Z,39.08
2019-05-18T17:25:30.353Z,38.95
2019-05-18T17:27:59.739Z,38.90
2019-05-18T17:30:31.196Z,38.94
2019-05-18T17:33:00.621Z,39.09
2019-05-18T17:35:30.103Z,39.20
2019-05-18T17:37:59.847Z,39.22
2019-05-18T17:40:30.921Z,39.91
2019-05-18T17:43:00.578Z,41.06
2019-05-18T17:45:30.202Z,41.62
2019-05-18T17:47:59.599Z,41.90
2019-05-18T17:50:29.992Z,41.79
2019-05-18T17:52:59.310Z,41.83
2019-05-18T17:55:28.673Z,42.01
2019-05-18T17:57:58.057Z,42.17
2019-05-18T18:00:27.406Z,42.24
2019-05-18T18:02:56.685Z,42.05
2019-05-18T18:05:28.842Z,42.01
2019-05-18T18:07:58.138Z,42.03
2019-05-18T18:10:27.467Z,41.96
2019-05-18T18:12:56.781Z,41.93
2019-05-18T18:15:26.183Z,41.70
2019-05-18T18:17:55.554Z,42.23
2019-05-18T18:20:26.410Z,43.86
2019-05-18T18:22:56.286Z,43.87
2019-05-18T18:25:25.654Z,42.55
2019-05-18T18:27:55.138Z,40.64
2019-05-18T18:30:24.625Z,39.65
2019-05-18T18:32:56.395Z,38.96
2019-05-18T18:35:25.805Z,38.81
2019-05-18T18:37:55.198Z,37.14
2019-05-18T18:40:24.536Z,36.02
2019-05-18T18:42:53.976Z,34.88
2019-05-18T18:45:23.446Z,33.81
2019-05-18T18:47:53.041Z,33.94
2019-05-18T18:50:22.392Z,34.35
2019-05-18T18:52:51.886Z,34.83
2019-05-18T18:55:21.303Z,34.88
2019-05-18T18:57:50.734Z,34.95
2019-05-18T19:00:20.924Z,35.38
2019-05-18T19:02:50.386Z,36.01
2019-05-18T19:05:19.946Z,36.70
2019-05-18T19:07:49.336Z,37.17
2019-05-18T19:10:18.776Z,37.69
2019-05-18T19:12:48.209Z,38.24
2019-05-18T19:15:18.323Z,38.67
2019-05-18T19:17:47.747Z,39.01
2019-05-18T19:20:18.136Z,39.29
2019-05-18T19:22:47.535Z,39.48
2019-05-18T19:25:17.177Z,39.84
2019-05-18T19:27:54.430Z,40.15
2019-05-18T19:30:17.977Z,40.51
2019-05-18T19:32:47.505Z,40.98
2019-05-18T19:35:16.897Z,41.39
2019-05-18T19:37:46.274Z,41.61
2019-05-18T19:40:16.626Z,41.97
2019-05-18T19:42:45.973Z,42.13
2019-05-18T19:45:15.773Z,42.56
2019-05-18T19:47:45.149Z,42.64
2019-05-18T19:50:14.835Z,42.69
2019-05-18T19:52:44.240Z,43.01
2019-05-18T19:55:17.251Z,43.20
2019-05-18T19:57:46.648Z,43.62
2019-05-18T20:00:18.846Z,43.74
2019-05-18T20:02:48.237Z,43.98
2019-05-18T20:05:17.655Z,44.11
2019-05-18T20:07:47.073Z,44.19
2019-05-18T20:10:16.669Z,44.29
2019-05-18T20:12:46.039Z,44.37
2019-05-18T20:15:17.852Z,44.65
2019-05-18T20:17:47.261Z,44.85
2019-05-18T20:20:16.980Z,45.13
2019-05-18T20:22:46.425Z,45.50
2019-05-18T20:25:17.196Z,45.69
2019-05-18T20:27:46.528Z,45.89
2019-05-18T20:30:16.086Z,45.93
2019-05-18T20:32:45.499Z,46.20
2019-05-18T20:35:18.391Z,46.21
2019-05-18T20:37:47.842Z,45.94
2019-05-18T20:40:17.345Z,45.86
2019-05-18T20:42:46.780Z,45.82
2019-05-18T20:45:16.255Z,45.78
2019-05-18T20:47:45.838Z,45.87
2019-05-18T20:50:16.307Z,45.79
2019-05-18T20:52:45.686Z,45.92
2019-05-18T20:55:15.602Z,45.85
2019-05-18T20:57:45.099Z,45.90
2019-05-18T21:00:15.875Z,46.08
2019-05-18T21:02:47.457Z,46.10
2019-05-18T21:05:16.939Z,46.48
2019-05-18T21:07:46.434Z,46.36
2019-05-18T21:10:16.107Z,46.45
2019-05-18T21:12:45.905Z,46.45
2019-05-18T21:15:15.860Z,46.36
2019-05-18T21:17:46.728Z,46.31
2019-05-18T21:20:16.128Z,46.20
2019-05-18T21:22:45.584Z,46.22
2019-05-18T21:25:15.159Z,46.11
2019-05-18T21:27:44.571Z,46.01
2019-05-18T21:30:14.581Z,46.16
2019-05-18T21:32:43.950Z,46.20
2019-05-18T21:35:13.305Z,46.31
2019-05-18T21:37:42.707Z,46.36
2019-05-18T21:40:12.266Z,46.52
2019-05-18T21:42:41.779Z,46.57
2019-05-18T21:45:11.546Z,46.55
2019-05-18T21:47:41.157Z,46.60
2019-05-18T21:50:10.510Z,46.49
2019-05-18T21:52:42.011Z,46.50
2019-05-18T21:55:11.029Z,46.38
2019-05-18T21:57:40.501Z,46.29
2019-05-18T22:00:10.150Z,46.33
2019-05-18T22:02:39.562Z,46.20
2019-05-18T22:05:09.022Z,46.04
2019-05-18T22:07:38.623Z,45.89
2019-05-18T22:10:24.442Z,45.70
2019-05-18T22:12:40.524Z,45.56
2019-05-18T22:15:10.619Z,45.52
2019-05-18T22:17:57.561Z,45.45
2019-05-18T22:20:27.007Z,45.17
2019-05-18T22:22:56.339Z,45.25
2019-05-18T22:25:25.706Z,45.02
2019-05-18T22:27:55.097Z,44.85
2019-05-18T22:30:24.586Z,44.67
2019-05-18T22:32:54.096Z,44.56
2019-05-18T22:35:24.515Z,44.49
2019-05-18T22:37:53.942Z,44.29
2019-05-18T22:40:23.389Z,44.14
2019-05-18T22:42:52.825Z,44.02
2019-05-18T22:45:22.323Z,43.92
2019-05-18T22:47:51.714Z,43.87
2019-05-18T22:50:21.128Z,43.70
2019-05-18T22:52:50.599Z,43.65
2019-05-18T22:55:19.968Z,43.50
2019-05-18T22:57:49.451Z,43.40
2019-05-18T23:00:19.025Z,43.33
2019-05-18T23:02:48.485Z,43.28
2019-05-18T23:05:18.088Z,43.37
2019-05-18T23:07:47.504Z,43.46
2019-05-18T23:10:17.029Z,43.86
2019-05-18T23:12:46.423Z,43.98
2019-05-18T23:15:16.723Z,44.27
2019-05-18T23:17:46.188Z,44.30
2019-05-18T23:20:15.630Z,44.48
2019-05-18T23:22:45.185Z,44.68
2019-05-18T23:25:15.072Z,44.84
2019-05-18T23:27:44.479Z,45.13
2019-05-18T23:30:15.382Z,45.16
2019-05-18T23:32:44.857Z,45.43
2019-05-18T23:35:14.471Z,45.40
2019-05-18T23:37:44.063Z,45.44
2019-05-18T23:40:14.518Z,45.57
2019-05-18T23:42:44.154Z,45.57
2019-05-18T23:45:15.399Z,45.68
2019-05-18T23:47:44.885Z,45.68
2019-05-18T23:50:14.598Z,45.69
2019-05-18T23:52:44.139Z,45.78
2019-05-18T23:55:14.092Z,45.78
2019-05-18T23:57:43.646Z,45.89
